Terminal Aerodrome Forecast
Issued by NWS

Home | Current Version | Previous Version | Text Only | Print | Product List | Glossary On
Versions: 1 2 3 4 5 6 7 8 9 10 11 12 13 14 15 16 17 18 19 20 21 22 23 24 25 26 27 28 29
000
FTUS43 KDLH 270200 AAA
TAFBRD
TAF AMD
KBRD 270208Z 2702/2724 VRB03KT P6SM BKN090
      TEMPO 2704/2705 -SHRA SCT030 BKN060
     FM270500 VRB02KT P6SM -SHRA SCT030 BKN060
      TEMPO 2705/2708 -RA OVC040
     FM271000 28005KT P6SM SCT060 SCT100
      TEMPO 2710/2713 2SM -SHRA BR
     FM271800 19005KT P6SM FEW040=

USA.gov is the U.S. government's official web portal to all federal, state and local government web resources and services.